Time;durP1;ratioP1;P1;durP2;ratioP2;P2;SDS_P1;SDS_P2;PMS_P1;PMS_P2;Temp;Humidity;BMP_temperature;BMP_pressure;BME280_temperature;BME280_humidity;BME280_pressure;Samples;Min_cycle;Max_cycle;Signal;HPM_P1;HPM_P2
2022/01/06 00:00:39;;;;;;;29.30;5.88;;;3.90;99.90;;;;;;5086372;28;20089;-82
2022/01/06 00:03:04;;;;;;;17.63;4.80;;;3.90;99.90;;;;;;5091194;28;20497;-85
2022/01/06 00:05:30;;;;;;;26.63;5.63;;;4.00;99.90;;;;;;5086270;28;20084;-84
2022/01/06 00:07:56;;;;;;;30.98;5.57;;;4.00;99.90;;;;;;5090876;28;20122;-83
2022/01/06 00:10:23;;;;;;;42.80;6.05;;;3.90;99.90;;;;;;5072443;28;20367;-80
2022/01/06 00:13:09;;;;;;;21.05;4.55;;;3.80;99.90;;;;;;5092038;28;20051;-83
2022/01/06 00:16:01;;;;;;;35.05;7.88;;;3.90;99.90;;;;;;5081893;28;20040;-83
2022/01/06 00:23:55;;;;;;;29.30;5.65;;;3.70;99.90;;;;;;5092300;28;20055;-80
2022/01/06 00:26:20;;;;;;;22.45;4.70;;;3.60;99.90;;;;;;5088260;28;20032;-82
2022/01/06 00:28:46;;;;;;;24.25;5.53;;;3.50;99.90;;;;;;5070409;28;20047;-83
2022/01/06 00:31:12;;;;;;;27.10;5.97;;;3.40;99.90;;;;;;5083104;28;20047;-82
2022/01/06 00:33:37;;;;;;;27.52;5.05;;;3.30;99.90;;;;;;5071174;28;20070;-81
2022/01/06 00:36:03;;;;;;;32.15;5.57;;;3.30;99.90;;;;;;5072334;28;20040;-82
2022/01/06 00:38:29;;;;;;;17.25;3.63;;;3.30;99.90;;;;;;5090384;28;20036;-84
2022/01/06 00:40:56;;;;;;;22.58;4.53;;;3.30;99.90;;;;;;5078996;28;20058;-81
2022/01/06 00:43:22;;;;;;;38.13;5.53;;;3.30;99.90;;;;;;5089595;28;20046;-83
2022/01/06 00:45:47;;;;;;;24.77;5.43;;;3.30;99.90;;;;;;5089811;28;20480;-85
2022/01/06 00:48:13;;;;;;;25.60;3.97;;;3.30;99.90;;;;;;5073523;28;20086;-79
2022/01/06 00:50:42;;;;;;;37.78;3.47;;;3.30;99.90;;;;;;5088325;28;20482;-84
2022/01/06 00:53:08;;;;;;;20.02;3.28;;;3.20;99.90;;;;;;5090441;28;20048;-86
2022/01/06 00:55:35;;;;;;;24.73;4.22;;;3.20;99.90;;;;;;5089213;28;20082;-84
2022/01/06 00:58:02;;;;;;;15.35;3.40;;;3.20;99.90;;;;;;5087837;28;20079;-85
2022/01/06 01:00:37;;;;;;;19.58;4.60;;;3.20;99.90;;;;;;5067364;28;20047;-84
2022/01/06 01:03:05;;;;;;;18.70;3.20;;;3.10;99.90;;;;;;5090313;28;20079;-85
2022/01/06 01:05:31;;;;;;;21.45;6.22;;;3.10;99.90;;;;;;5090581;28;20044;-85
2022/01/06 01:07:57;;;;;;;13.82;5.38;;;3.10;99.90;;;;;;5090191;28;20047;-85
2022/01/06 01:10:22;;;;;;;19.88;4.15;;;3.10;99.90;;;;;;5087282;28;20044;-85
2022/01/06 01:12:49;;;;;;;21.90;4.07;;;3.20;99.90;;;;;;5090494;28;20048;-85
2022/01/06 01:15:20;;;;;;;21.30;3.03;;;3.10;99.90;;;;;;5089968;28;20047;-83
2022/01/06 01:17:52;;;;;;;19.77;3.88;;;3.20;99.90;;;;;;5088882;28;20044;-85
2022/01/06 01:20:19;;;;;;;21.00;3.35;;;3.10;99.90;;;;;;5070617;28;20035;-85
2022/01/06 01:22:45;;;;;;;15.00;4.80;;;3.10;99.90;;;;;;5082096;28;20037;-85
2022/01/06 01:25:12;;;;;;;21.88;4.32;;;3.10;99.90;;;;;;5054374;28;20090;-84
2022/01/06 01:27:41;;;;;;;27.58;5.72;;;3.20;99.90;;;;;;5088359;28;20043;-84
2022/01/06 01:30:10;;;;;;;24.73;4.20;;;3.20;99.90;;;;;;5084849;28;20032;-85
2022/01/06 01:32:37;;;;;;;15.88;4.25;;;3.20;99.90;;;;;;5070862;28;20043;-86
2022/01/06 01:35:06;;;;;;;16.58;3.40;;;3.20;99.90;;;;;;5089386;28;20546;-82
2022/01/06 01:37:33;;;;;;;21.87;3.07;;;3.10;99.90;;;;;;5088984;28;20739;-84
2022/01/06 01:39:58;;;;;;;18.85;3.17;;;3.20;99.90;;;;;;5069635;28;20664;-83
2022/01/06 01:42:25;;;;;;;11.55;3.67;;;3.10;99.90;;;;;;5087996;28;20044;-82
2022/01/06 01:44:51;;;;;;;25.05;4.72;;;3.00;99.90;;;;;;5088924;28;20058;-84
2022/01/06 01:47:28;;;;;;;14.20;3.55;;;3.00;99.90;;;;;;5053850;28;20040;-84
2022/01/06 01:49:59;;;;;;;18.27;3.03;;;3.00;99.90;;;;;;5086572;28;20093;-83
2022/01/06 01:52:25;;;;;;;14.32;3.00;;;3.00;99.90;;;;;;5068568;28;20085;-83
2022/01/06 01:54:50;;;;;;;39.55;4.38;;;2.90;99.90;;;;;;5089033;28;20614;-83
2022/01/06 01:57:16;;;;;;;33.38;5.13;;;2.90;99.90;;;;;;5085650;28;20390;-82
2022/01/06 01:59:42;;;;;;;23.45;3.97;;;2.90;99.90;;;;;;5073936;28;20139;-83
2022/01/06 02:02:08;;;;;;;15.23;3.22;;;3.00;99.90;;;;;;5087348;28;20170;-84
2022/01/06 02:04:34;;;;;;;21.13;5.00;;;2.80;99.90;;;;;;5089186;28;20036;-81
2022/01/06 02:07:00;;;;;;;16.45;2.60;;;2.90;99.90;;;;;;5071388;28;20463;-84
2022/01/06 02:09:25;;;;;;;14.80;3.47;;;2.80;99.90;;;;;;5089992;28;20057;-83
2022/01/06 02:11:51;;;;;;;20.75;5.82;;;2.80;99.90;;;;;;5087626;28;20040;-82
2022/01/06 02:14:16;;;;;;;12.57;2.08;;;2.90;99.90;;;;;;5090046;28;20512;-84
2022/01/06 02:16:42;;;;;;;22.13;2.58;;;2.80;99.90;;;;;;5086292;28;20032;-83
2022/01/06 02:19:07;;;;;;;21.48;3.65;;;2.90;99.90;;;;;;5090375;28;20044;-85
2022/01/06 02:21:41;;;;;;;16.10;3.28;;;2.80;99.90;;;;;;5087697;28;20131;-84
2022/01/06 02:24:07;;;;;;;25.08;4.35;;;2.80;99.90;;;;;;5089052;28;20040;-83
2022/01/06 02:26:32;;;;;;;17.05;2.95;;;2.90;99.90;;;;;;5086679;28;20424;-83
2022/01/06 02:28:58;;;;;;;20.55;3.83;;;2.80;99.90;;;;;;5067673;28;20028;-81
2022/01/06 02:31:24;;;;;;;23.77;5.57;;;2.80;99.90;;;;;;5091138;28;20040;-84
2022/01/06 02:33:49;;;;;;;21.33;3.72;;;2.70;99.90;;;;;;5091318;28;20078;-84
2022/01/06 02:36:15;;;;;;;13.93;3.40;;;2.80;99.90;;;;;;5091787;28;20040;-83
2022/01/06 02:38:41;;;;;;;13.65;2.83;;;2.80;99.90;;;;;;5093482;28;20032;-82
2022/01/06 02:41:06;;;;;;;12.80;2.60;;;2.80;99.90;;;;;;5091624;28;20113;-84
2022/01/06 02:43:32;;;;;;;28.15;3.88;;;2.70;99.90;;;;;;5092981;28;20474;-84
2022/01/06 02:45:58;;;;;;;15.30;2.83;;;2.70;99.90;;;;;;5092910;28;20036;-84
2022/01/06 02:48:24;;;;;;;24.92;4.18;;;2.70;99.90;;;;;;5092808;28;20489;-83
2022/01/06 02:50:50;;;;;;;17.77;3.10;;;2.50;99.90;;;;;;5092419;28;20504;-84
2022/01/06 02:53:17;;;;;;;14.55;4.15;;;2.50;99.90;;;;;;5093857;28;20451;-85
2022/01/06 02:55:49;;;;;;;19.08;4.32;;;2.40;99.90;;;;;;5091933;28;20409;-84
2022/01/06 02:58:15;;;;;;;22.45;5.47;;;2.50;99.90;;;;;;5090952;28;20096;-84
2022/01/06 03:00:40;;;;;;;13.80;2.45;;;2.40;99.90;;;;;;5087281;28;20052;-84
2022/01/06 03:03:06;;;;;;;25.13;4.88;;;2.30;99.90;;;;;;5094019;28;20508;-84
2022/01/06 03:05:31;;;;;;;21.15;4.20;;;2.40;99.90;;;;;;5073088;28;20039;-83
2022/01/06 03:07:57;;;;;;;27.73;4.22;;;2.40;99.90;;;;;;5078364;28;20040;-84
2022/01/06 03:10:23;;;;;;;20.05;4.55;;;2.30;99.90;;;;;;5103877;28;20543;-85
2022/01/06 03:12:49;;;;;;;18.83;3.25;;;2.30;99.90;;;;;;5075140;28;20409;-84
2022/01/06 03:15:17;;;;;;;21.67;3.15;;;2.30;99.90;;;;;;5074541;28;20055;-84
2022/01/06 03:17:45;;;;;;;17.23;2.65;;;2.30;99.90;;;;;;5074997;28;20047;-84
2022/01/06 03:20:14;;;;;;;12.32;3.70;;;2.30;99.90;;;;;;5090355;28;20505;-84
2022/01/06 03:22:41;;;;;;;18.75;3.17;;;2.20;99.90;;;;;;5073227;28;20138;-83
2022/01/06 03:25:08;;;;;;;13.98;3.45;;;2.20;99.90;;;;;;5091740;28;20042;-83
2022/01/06 03:27:34;;;;;;;24.85;3.28;;;2.20;99.90;;;;;;5090947;28;20154;-84
2022/01/06 03:29:59;;;;;;;32.05;6.72;;;2.30;99.90;;;;;;5086681;28;20060;-82
2022/01/06 03:32:25;;;;;;;15.73;3.83;;;2.30;99.90;;;;;;5091816;28;20078;-84
2022/01/06 03:34:50;;;;;;;17.33;3.47;;;2.30;99.90;;;;;;5092387;28;20040;-84
2022/01/06 03:37:16;;;;;;;14.40;4.82;;;2.20;99.90;;;;;;5055469;28;20082;-84
2022/01/06 03:39:43;;;;;;;22.67;4.47;;;2.10;99.90;;;;;;5092976;28;20097;-84
2022/01/06 03:42:11;;;;;;;8.95;2.92;;;2.00;99.90;;;;;;5086298;28;20098;-84
2022/01/06 03:44:37;;;;;;;14.68;3.25;;;2.00;99.90;;;;;;5090981;28;20048;-84
2022/01/06 03:47:03;;;;;;;12.00;3.33;;;2.10;99.90;;;;;;5090550;28;20066;-84
2022/01/06 03:49:28;;;;;;;30.63;4.25;;;2.00;99.90;;;;;;5091439;28;20068;-83
2022/01/06 03:51:54;;;;;;;9.95;2.70;;;2.00;99.90;;;;;;5090936;28;20035;-84
2022/01/06 03:54:20;;;;;;;13.57;2.55;;;2.00;99.90;;;;;;5071687;28;20481;-84
2022/01/06 03:56:48;;;;;;;26.67;5.10;;;1.80;99.90;;;;;;5089237;28;20040;-84
2022/01/06 03:59:15;;;;;;;41.10;5.07;;;1.90;99.90;;;;;;5073935;28;20054;-77
2022/01/06 04:01:41;;;;;;;28.10;4.45;;;1.90;99.90;;;;;;5091483;28;20044;-83
2022/01/06 04:04:06;;;;;;;27.80;4.15;;;1.90;99.90;;;;;;5093547;28;20043;-83
2022/01/06 04:06:32;;;;;;;23.88;4.45;;;2.00;99.90;;;;;;5094477;28;20039;-81
2022/01/06 04:08:58;;;;;;;23.60;4.65;;;1.90;99.90;;;;;;5094794;28;20127;-82
2022/01/06 04:11:23;;;;;;;21.95;6.40;;;1.90;99.90;;;;;;5090287;28;20039;-84
2022/01/06 04:13:49;;;;;;;26.60;3.58;;;1.90;99.90;;;;;;5095361;28;20047;-82
2022/01/06 04:16:16;;;;;;;21.98;3.88;;;2.00;99.90;;;;;;5078773;28;20534;-81
2022/01/06 04:18:42;;;;;;;16.20;2.30;;;2.10;99.90;;;;;;5102545;28;20085;-84
2022/01/06 04:21:09;;;;;;;16.80;2.90;;;2.10;99.90;;;;;;5102121;28;20036;-82
2022/01/06 04:23:34;;;;;;;18.08;5.00;;;2.20;99.90;;;;;;5103293;28;20174;-83
2022/01/06 04:26:00;;;;;;;20.48;5.15;;;2.10;99.90;;;;;;5095381;28;20059;-84
2022/01/06 04:28:25;;;;;;;23.48;4.95;;;2.10;99.90;;;;;;5070760;28;20094;-84
2022/01/06 04:30:51;;;;;;;19.15;4.18;;;2.00;99.90;;;;;;5091074;28;20123;-84
2022/01/06 04:33:17;;;;;;;19.52;5.47;;;2.10;99.90;;;;;;5091255;28;20040;-84
2022/01/06 04:35:42;;;;;;;13.00;3.85;;;2.00;99.90;;;;;;5091858;28;20040;-83
2022/01/06 04:38:08;;;;;;;22.38;5.07;;;1.90;99.90;;;;;;5089506;28;20040;-83
2022/01/06 04:40:34;;;;;;;9.82;2.35;;;1.90;99.90;;;;;;5062717;28;20402;-84
2022/01/06 04:43:00;;;;;;;11.30;2.78;;;1.90;99.90;;;;;;5051582;28;20048;-85
2022/01/06 04:45:25;;;;;;;33.67;4.22;;;1.70;99.90;;;;;;5058166;28;20040;-85
2022/01/06 04:47:51;;;;;;;18.88;4.90;;;1.80;99.90;;;;;;5071132;28;20102;-84
2022/01/06 04:50:16;;;;;;;19.92;5.25;;;1.70;99.90;;;;;;5055650;28;20155;-83
2022/01/06 04:52:42;;;;;;;27.00;4.35;;;1.70;99.90;;;;;;5053239;28;20048;-83
2022/01/06 04:55:08;;;;;;;12.65;3.10;;;1.60;99.90;;;;;;5055910;28;20040;-83
2022/01/06 04:57:34;;;;;;;19.50;4.38;;;1.70;99.90;;;;;;5058441;28;20048;-85
2022/01/06 04:59:59;;;;;;;20.92;4.75;;;1.80;99.90;;;;;;5068530;28;20128;-83
2022/01/06 05:02:25;;;;;;;16.42;3.20;;;1.70;99.90;;;;;;5048778;28;20388;-84
2022/01/06 05:04:50;;;;;;;22.33;4.55;;;1.70;99.90;;;;;;5047553;28;20044;-82
2022/01/06 05:07:16;;;;;;;17.05;2.65;;;1.70;99.90;;;;;;5069658;28;20090;-84
2022/01/06 05:09:41;;;;;;;27.67;4.72;;;1.70;99.90;;;;;;5068618;28;20510;-83
2022/01/06 05:12:07;;;;;;;22.15;3.92;;;1.50;99.90;;;;;;5068159;28;20406;-83
2022/01/06 05:14:33;;;;;;;14.55;4.82;;;1.40;99.90;;;;;;5070052;28;20098;-83
2022/01/06 05:17:00;;;;;;;27.08;4.57;;;1.30;99.90;;;;;;5068746;28;20051;-84
2022/01/06 05:19:26;;;;;;;16.92;4.82;;;1.00;99.90;;;;;;5070939;28;20045;-83
2022/01/06 05:21:52;;;;;;;26.67;4.45;;;0.90;99.90;;;;;;5071920;28;20046;-83
2022/01/06 05:24:19;;;;;;;18.00;3.65;;;0.90;99.90;;;;;;5072807;28;20125;-84
2022/01/06 05:26:46;;;;;;;12.25;2.80;;;0.90;99.90;;;;;;5069490;28;20055;-83
2022/01/06 05:29:13;;;;;;;19.50;4.20;;;0.80;99.90;;;;;;5051024;28;20044;-83
2022/01/06 05:31:39;;;;;;;15.10;2.78;;;0.70;99.90;;;;;;5051084;28;20052;-84
2022/01/06 05:34:05;;;;;;;14.10;3.53;;;0.60;99.90;;;;;;5053227;28;20040;-83
2022/01/06 05:36:31;;;;;;;20.83;4.22;;;0.70;99.90;;;;;;5065764;28;20044;-84
2022/01/06 05:38:57;;;;;;;20.75;4.72;;;0.50;99.90;;;;;;5070076;28;20053;-83
2022/01/06 05:41:22;;;;;;;26.38;4.63;;;0.70;99.90;;;;;;5078928;28;20047;-83
2022/01/06 05:43:49;;;;;;;22.05;6.03;;;0.70;99.90;;;;;;5071907;28;20494;-82
2022/01/06 05:46:16;;;;;;;12.98;2.70;;;0.70;99.90;;;;;;5070423;28;20374;-81
2022/01/06 05:48:42;;;;;;;20.88;3.17;;;0.60;99.90;;;;;;5089489;28;20040;-83
2022/01/06 05:51:08;;;;;;;19.98;2.75;;;0.60;99.90;;;;;;5087380;28;20032;-82
2022/01/06 05:53:34;;;;;;;19.27;2.95;;;0.50;99.90;;;;;;5089725;28;20059;-82
2022/01/06 05:55:59;;;;;;;16.42;4.53;;;0.50;99.90;;;;;;5069919;28;20052;-81
2022/01/06 05:58:25;;;;;;;27.17;5.25;;;0.60;99.90;;;;;;5087569;28;20075;-84
2022/01/06 06:00:51;;;;;;;19.52;3.22;;;0.50;99.90;;;;;;5071790;28;20032;-83
2022/01/06 06:03:16;;;;;;;27.38;4.07;;;0.40;99.90;;;;;;5089753;28;20048;-82
2022/01/06 06:05:42;;;;;;;21.52;4.13;;;0.60;99.90;;;;;;5093865;28;20088;-82
2022/01/06 06:08:09;;;;;;;17.05;4.03;;;0.50;99.90;;;;;;5094567;28;20405;-82
2022/01/06 06:10:36;;;;;;;27.95;4.75;;;0.40;99.90;;;;;;5090901;28;20397;-82
2022/01/06 06:13:01;;;;;;;19.48;3.92;;;0.40;99.90;;;;;;5091843;28;20510;-82
2022/01/06 06:15:28;;;;;;;17.13;4.15;;;0.30;99.90;;;;;;5073819;28;20043;-81
2022/01/06 06:17:53;;;;;;;17.92;2.92;;;0.30;99.90;;;;;;5075244;28;20032;-82
2022/01/06 06:20:19;;;;;;;19.35;4.30;;;0.30;99.90;;;;;;5089399;28;20032;-80
2022/01/06 06:22:44;;;;;;;24.33;4.88;;;0.20;99.90;;;;;;5075597;28;20043;-81
2022/01/06 06:25:10;;;;;;;37.60;7.10;;;0.30;99.90;;;;;;5056147;28;20044;-82
2022/01/06 06:27:36;;;;;;;28.77;4.72;;;0.40;99.90;;;;;;5069942;28;20043;-83
2022/01/06 06:30:04;;;;;;;27.67;6.32;;;0.60;99.90;;;;;;5091528;28;20040;-82
2022/01/06 06:32:33;;;;;;;38.67;6.38;;;0.60;99.90;;;;;;5080493;28;20498;-82
2022/01/06 06:34:59;;;;;;;34.00;6.47;;;0.50;99.90;;;;;;5076089;28;20048;-83
2022/01/06 06:37:25;;;;;;;15.98;4.00;;;0.60;99.90;;;;;;5093274;28;20047;-81
2022/01/06 06:39:50;;;;;;;17.83;3.00;;;0.60;99.90;;;;;;5091259;28;20116;-82
2022/01/06 06:42:16;;;;;;;19.73;2.40;;;0.60;99.90;;;;;;5094231;28;20048;-82
2022/01/06 06:44:41;;;;;;;20.85;3.38;;;0.50;99.90;;;;;;5092572;28;20083;-82
2022/01/06 06:47:07;;;;;;;19.35;3.90;;;0.50;99.90;;;;;;5092925;28;20090;-83
2022/01/06 06:49:33;;;;;;;20.45;3.90;;;0.40;99.90;;;;;;5075573;28;20478;-83
2022/01/06 06:51:58;;;;;;;25.35;6.45;;;0.40;99.90;;;;;;5074068;28;20044;-83
2022/01/06 06:54:25;;;;;;;17.48;2.53;;;0.40;99.90;;;;;;5092543;28;20040;-82
2022/01/06 06:56:50;;;;;;;22.20;5.68;;;0.40;99.90;;;;;;5071889;28;20460;-83
2022/01/06 06:59:16;;;;;;;38.13;7.15;;;0.30;99.90;;;;;;5073941;28;20146;-85
2022/01/06 07:01:41;;;;;;;16.02;2.97;;;0.30;99.90;;;;;;5103852;28;20043;-82
2022/01/06 07:04:07;;;;;;;22.02;3.70;;;0.30;99.90;;;;;;5114204;28;20181;-83
2022/01/06 07:06:33;;;;;;;15.88;4.03;;;0.30;99.90;;;;;;5092743;28;20086;-82
2022/01/06 07:08:58;;;;;;;22.88;4.75;;;0.40;99.90;;;;;;5074356;28;20040;-80
2022/01/06 07:11:24;;;;;;;20.33;3.47;;;0.30;99.90;;;;;;5072961;28;20579;-78
2022/01/06 07:13:49;;;;;;;17.85;4.70;;;0.30;99.90;;;;;;5092345;28;20516;-80
2022/01/06 07:16:15;;;;;;;15.85;4.20;;;0.20;99.90;;;;;;5091268;28;20060;-84
2022/01/06 07:18:40;;;;;;;29.70;8.20;;;0.20;99.90;;;;;;5080226;28;20080;-82
2022/01/06 07:21:06;;;;;;;23.67;4.85;;;0.30;99.90;;;;;;5091784;28;20119;-82
2022/01/06 07:23:32;;;;;;;21.42;6.57;;;0.30;99.90;;;;;;5091547;28;20043;-81
2022/01/06 07:25:57;;;;;;;27.17;4.47;;;0.40;99.90;;;;;;5090066;28;20044;-84
2022/01/06 07:28:23;;;;;;;17.80;3.40;;;0.40;99.90;;;;;;5089617;28;20048;-85
2022/01/06 07:30:48;;;;;;;28.65;5.97;;;0.40;99.90;;;;;;5091394;28;20036;-84
2022/01/06 07:33:14;;;;;;;24.10;4.32;;;0.40;99.90;;;;;;5092323;28;20062;-83
2022/01/06 07:35:39;;;;;;;23.63;7.07;;;0.30;99.90;;;;;;5074124;28;20127;-84
2022/01/06 07:38:05;;;;;;;20.83;3.97;;;0.30;99.90;;;;;;5073739;28;20453;-84
2022/01/06 07:40:31;;;;;;;15.45;4.95;;;0.20;99.90;;;;;;5069223;28;20111;-84
2022/01/06 07:42:56;;;;;;;28.70;5.00;;;0.10;99.90;;;;;;5070904;28;20475;-84
2022/01/06 07:45:22;;;;;;;31.17;4.68;;;0.20;99.90;;;;;;5071525;28;20406;-82
2022/01/06 07:47:56;;;;;;;9.75;2.67;;;0.10;99.90;;;;;;5070000;28;20044;-85
2022/01/06 07:50:23;;;;;;;24.52;4.18;;;0.30;99.90;;;;;;5069495;28;20052;-82
2022/01/06 07:52:49;;;;;;;22.42;5.03;;;0.20;99.90;;;;;;5067511;28;20060;-84
2022/01/06 07:55:15;;;;;;;24.23;5.53;;;0.20;99.90;;;;;;5075088;28;20040;-83
2022/01/06 07:57:40;;;;;;;22.30;4.55;;;0.30;99.90;;;;;;5070406;28;20486;-84
2022/01/06 08:00:06;;;;;;;19.00;2.90;;;0.30;99.90;;;;;;5072090;28;20063;-83
2022/01/06 08:02:32;;;;;;;21.98;4.35;;;0.30;99.90;;;;;;5069291;28;20169;-82
2022/01/06 08:04:58;;;;;;;27.63;5.13;;;0.20;99.90;;;;;;5069793;28;20037;-83
2022/01/06 08:07:23;;;;;;;30.33;4.65;;;0.20;99.90;;;;;;5070508;28;20534;-84
2022/01/06 08:09:49;;;;;;;24.05;6.13;;;0.20;99.90;;;;;;5071585;28;20048;-86
2022/01/06 08:12:14;;;;;;;23.00;4.45;;;0.20;99.90;;;;;;5069277;28;20131;-83
2022/01/06 08:14:40;;;;;;;26.77;5.07;;;0.30;99.90;;;;;;5070235;28;20045;-83
2022/01/06 08:17:05;;;;;;;18.63;4.38;;;0.30;99.90;;;;;;5063986;28;20562;-85
2022/01/06 08:19:31;;;;;;;26.08;5.47;;;0.40;99.90;;;;;;5066912;28;20514;-83
2022/01/06 08:21:57;;;;;;;19.65;4.78;;;0.40;99.90;;;;;;5069888;28;20041;-84
2022/01/06 08:24:22;;;;;;;38.53;4.72;;;0.40;99.90;;;;;;5070876;28;20494;-82
2022/01/06 08:26:48;;;;;;;37.22;4.13;;;0.40;99.90;;;;;;5067281;28;20482;-86
2022/01/06 08:29:13;;;;;;;22.15;5.63;;;0.40;99.90;;;;;;5065062;28;20392;-77
2022/01/06 08:31:39;;;;;;;25.05;5.03;;;0.60;99.90;;;;;;5060383;28;20094;-82
2022/01/06 08:34:05;;;;;;;15.20;4.50;;;0.60;99.90;;;;;;5068737;28;20048;-83
2022/01/06 08:36:30;;;;;;;21.42;4.38;;;0.60;99.90;;;;;;5067817;28;20123;-83
2022/01/06 08:38:56;;;;;;;23.45;7.28;;;0.60;99.90;;;;;;5064143;28;20091;-82
2022/01/06 08:41:21;;;;;;;21.92;3.80;;;0.70;99.90;;;;;;5081973;28;20112;-77
2022/01/06 08:43:47;;;;;;;24.65;5.47;;;0.70;99.90;;;;;;5073077;28;20351;-81
2022/01/06 08:46:13;;;;;;;23.20;5.07;;;0.80;99.90;;;;;;5071729;28;20489;-78
2022/01/06 08:48:38;;;;;;;23.17;5.20;;;0.80;99.90;;;;;;5036395;28;20115;-79
2022/01/06 08:51:04;;;;;;;63.30;6.68;;;1.00;99.90;;;;;;5086518;28;20111;-78
2022/01/06 08:53:29;;;;;;;23.00;4.55;;;1.00;99.90;;;;;;5089223;28;20048;-77
2022/01/06 08:55:55;;;;;;;31.48;3.20;;;1.20;99.90;;;;;;5088927;28;20036;-78
2022/01/06 08:58:21;;;;;;;20.08;4.88;;;1.20;99.90;;;;;;5089627;28;20264;-78
2022/01/06 09:00:46;;;;;;;23.17;4.63;;;1.30;99.90;;;;;;5059926;28;20097;-79
2022/01/06 09:03:12;;;;;;;15.50;3.47;;;1.40;99.90;;;;;;5072411;28;20044;-79
2022/01/06 09:05:38;;;;;;;18.00;3.97;;;1.40;99.90;;;;;;5071182;28;20144;-80
2022/01/06 09:08:04;;;;;;;24.80;3.70;;;1.50;99.90;;;;;;5071798;28;20505;-81
2022/01/06 09:10:33;;;;;;;37.05;7.63;;;1.50;99.90;;;;;;5070866;28;20047;-81
2022/01/06 09:12:59;;;;;;;24.25;4.18;;;1.70;99.90;;;;;;5056364;28;20135;-81
2022/01/06 09:15:25;;;;;;;16.92;5.00;;;1.60;99.90;;;;;;5055260;28;20402;-79
2022/01/06 09:17:51;;;;;;;25.15;5.25;;;1.80;99.90;;;;;;5075415;28;20126;-80
2022/01/06 09:20:17;;;;;;;23.00;4.53;;;1.70;99.90;;;;;;5068670;28;20075;-79
2022/01/06 09:22:43;;;;;;;31.02;5.30;;;1.80;99.90;;;;;;5066282;28;20444;-78
2022/01/06 09:25:11;;;;;;;27.88;5.13;;;1.80;99.90;;;;;;5088049;28;20047;-81
2022/01/06 09:27:36;;;;;;;30.45;5.15;;;1.90;99.90;;;;;;5096676;28;20398;-85
2022/01/06 09:30:05;;;;;;;33.30;5.35;;;1.80;99.90;;;;;;5080693;28;20080;-81
2022/01/06 09:32:30;;;;;;;21.70;3.38;;;2.00;99.90;;;;;;5072076;28;20496;-80
2022/01/06 09:34:56;;;;;;;22.75;4.80;;;1.90;99.90;;;;;;5094423;28;20089;-82
2022/01/06 09:37:22;;;;;;;21.17;5.55;;;2.00;99.90;;;;;;5072596;28;20067;-79
2022/01/06 09:39:50;;;;;;;24.73;5.35;;;2.10;99.90;;;;;;5087989;28;20047;-74
2022/01/06 09:42:17;;;;;;;19.30;3.47;;;2.00;99.90;;;;;;5068977;28;20119;-77
2022/01/06 09:44:42;;;;;;;21.27;5.22;;;2.10;99.90;;;;;;5049820;28;20045;-76
2022/01/06 09:47:09;;;;;;;16.92;5.10;;;2.10;99.90;;;;;;5028455;28;20283;-76
2022/01/06 09:49:37;;;;;;;23.08;4.97;;;2.20;99.90;;;;;;5069291;28;20080;-81
2022/01/06 09:52:06;;;;;;;26.85;5.25;;;2.20;99.90;;;;;;5068669;28;20048;-80
2022/01/06 09:54:36;;;;;;;27.43;5.27;;;2.40;99.90;;;;;;5067514;28;20044;-80
2022/01/06 09:57:02;;;;;;;;;;;2.40;99.90;;;;;;5033956;28;20080;-86
2022/01/06 09:59:28;;;;;;;25.15;4.40;;;2.50;99.90;;;;;;5052117;28;20054;-87
2022/01/06 10:01:54;;;;;;;28.15;4.53;;;2.70;99.90;;;;;;5069678;28;20406;-87
2022/01/06 10:04:27;;;;;;;28.63;6.45;;;2.70;99.90;;;;;;5051864;28;20047;-88
2022/01/06 10:07:06;;;;;;;36.65;5.75;;;2.70;99.90;;;;;;5060211;28;20052;-85
2022/01/06 10:09:34;;;;;;;17.00;5.40;;;2.80;99.90;;;;;;5069446;28;20153;-86
2022/01/06 10:12:03;;;;;;;17.55;6.35;;;2.90;99.90;;;;;;5068581;28;20349;-89
2022/01/06 10:14:44;;;;;;;26.38;5.25;;;2.90;99.90;;;;;;5052428;28;20478;-86
2022/01/06 10:17:29;;;;;;;35.90;5.68;;;3.00;99.90;;;;;;5049013;28;20049;-88
2022/01/06 10:19:55;;;;;;;19.88;5.72;;;3.10;99.90;;;;;;5052020;28;20421;-87
2022/01/06 10:22:22;;;;;;;30.52;4.82;;;3.10;99.90;;;;;;5051724;28;20048;-88
2022/01/06 10:24:49;;;;;;;17.90;5.35;;;3.20;99.90;;;;;;5066846;28;20044;-87
2022/01/06 10:27:18;;;;;;;28.83;4.70;;;3.20;99.90;;;;;;5065364;28;20085;-86
2022/01/06 10:29:46;;;;;;;30.60;5.10;;;3.40;99.90;;;;;;5067795;28;20182;-83
2022/01/06 10:32:14;;;;;;;20.75;4.97;;;3.50;99.90;;;;;;5067793;28;20177;-83
2022/01/06 10:34:42;;;;;;;23.75;5.28;;;3.50;99.90;;;;;;5067507;28;20052;-82
2022/01/06 10:37:26;;;;;;;30.10;4.55;;;3.60;99.90;;;;;;5029543;28;20490;-82
2022/01/06 10:39:55;;;;;;;28.25;5.68;;;3.70;99.90;;;;;;5067160;28;20044;-82
2022/01/06 10:42:30;;;;;;;34.30;5.95;;;3.80;99.90;;;;;;5085341;28;20044;-83
2022/01/06 10:45:00;;;;;;;16.60;3.13;;;3.80;99.90;;;;;;5071844;28;20044;-83
2022/01/06 10:47:34;;;;;;;18.00;3.85;;;3.90;99.90;;;;;;5091066;28;20044;-83
2022/01/06 10:50:14;;;;;;;29.92;5.38;;;4.00;99.90;;;;;;5100800;28;20036;-82
2022/01/06 10:52:44;;;;;;;30.10;5.85;;;4.00;99.90;;;;;;5076146;28;20052;-84
2022/01/06 10:55:15;;;;;;;23.02;5.28;;;4.10;99.90;;;;;;5080033;28;20120;-84
2022/01/06 10:58:17;;;;;;;23.88;5.05;;;4.20;99.90;;;;;;5094429;28;20398;-85
2022/01/06 11:00:52;;;;;;;20.95;6.35;;;4.10;99.90;;;;;;5078699;28;20517;-83
2022/01/06 11:03:23;;;;;;;23.17;5.43;;;4.30;99.90;;;;;;5093365;28;20040;-85
2022/01/06 11:05:51;;;;;;;26.40;4.88;;;4.30;99.90;;;;;;5092497;28;20035;-83
2022/01/06 11:08:24;;;;;;;21.08;4.05;;;4.40;99.90;;;;;;5092008;28;20508;-82
2022/01/06 11:13:38;;;;;;;24.15;4.07;;;4.40;99.90;;;;;;5088118;28;20161;-83
2022/01/06 11:16:05;;;;;;;60.75;7.03;;;4.50;99.90;;;;;;5092132;28;20086;-81
2022/01/06 11:18:31;;;;;;;30.35;5.28;;;4.60;99.90;;;;;;5092726;28;20169;-83
2022/01/06 11:21:10;;;;;;;18.98;6.00;;;4.70;99.90;;;;;;5092484;28;20044;-83
2022/01/06 11:23:36;;;;;;;25.58;6.90;;;4.70;99.90;;;;;;5091146;28;20131;-83
2022/01/06 11:26:03;;;;;;;11.45;3.15;;;4.70;99.90;;;;;;5074180;28;20131;-82
2022/01/06 11:28:30;;;;;;;32.47;4.40;;;4.90;99.90;;;;;;5092199;28;20445;-81
2022/01/06 11:30:57;;;;;;;37.45;5.40;;;5.00;99.90;;;;;;5055904;28;20120;-82
2022/01/06 11:33:22;;;;;;;28.30;4.82;;;5.00;99.90;;;;;;5089245;28;20047;-82
2022/01/06 11:35:54;;;;;;;30.25;5.82;;;5.10;99.90;;;;;;5079447;28;20036;-86
2022/01/06 11:38:25;;;;;;;21.65;2.85;;;5.10;99.90;;;;;;5081557;28;20043;-85
2022/01/06 11:41:05;;;;;;;13.57;3.92;;;5.10;99.90;;;;;;5092729;28;20052;-86
2022/01/06 11:43:37;;;;;;;16.90;4.05;;;5.20;99.90;;;;;;5092287;28;20032;-85
2022/01/06 11:46:03;;;;;;;24.55;4.93;;;5.30;99.90;;;;;;5074741;28;20155;-87
2022/01/06 11:48:29;;;;;;;21.48;3.95;;;5.20;99.90;;;;;;5092383;28;20142;-86
2022/01/06 11:50:55;;;;;;;24.20;5.65;;;5.30;99.90;;;;;;5092531;28;20523;-84
2022/01/06 11:53:31;;;;;;;16.00;3.30;;;5.30;99.90;;;;;;5090950;28;20063;-85
2022/01/06 11:55:58;;;;;;;12.88;2.25;;;5.40;99.90;;;;;;5091404;28;20052;-84
2022/01/06 11:58:25;;;;;;;14.45;2.42;;;5.40;99.90;;;;;;5089271;28;20039;-87
2022/01/06 12:01:14;;;;;;;22.35;2.75;;;5.40;99.90;;;;;;5092560;28;20059;-86
2022/01/06 12:03:42;;;;;;;14.55;3.35;;;5.30;99.90;;;;;;5064273;28;20055;-87
2022/01/06 12:06:12;;;;;;;17.45;3.63;;;5.20;99.90;;;;;;5092944;28;20036;-86
2022/01/06 12:08:40;;;;;;;20.67;4.65;;;5.10;99.90;;;;;;5091318;28;20490;-86
2022/01/06 12:11:26;;;;;;;7.97;3.13;;;5.10;99.90;;;;;;5074093;28;20109;-85
2022/01/06 12:13:55;;;;;;;15.20;3.05;;;5.30;99.90;;;;;;5092041;28;20530;-84
2022/01/06 12:16:35;;;;;;;26.00;3.60;;;5.30;99.90;;;;;;5092181;28;20051;-87
2022/01/06 12:19:12;;;;;;;12.70;3.10;;;5.40;99.90;;;;;;5089420;28;20040;-85
2022/01/06 12:21:37;;;;;;;11.32;4.07;;;5.60;99.90;;;;;;5070530;28;20044;-85
2022/01/06 12:24:06;;;;;;;17.90;3.25;;;5.60;99.90;;;;;;5080112;28;20405;-86
2022/01/06 12:26:33;;;;;;;15.82;3.03;;;5.60;99.90;;;;;;5089909;28;20528;-85
2022/01/06 12:29:00;;;;;;;7.97;1.83;;;5.80;99.90;;;;;;5075934;28;20672;-87
2022/01/06 12:31:28;;;;;;;19.35;4.55;;;5.90;99.90;;;;;;5085327;28;20075;-85
2022/01/06 12:33:59;;;;;;;17.70;3.38;;;6.00;99.90;;;;;;5062804;28;20406;-84
2022/01/06 12:36:27;;;;;;;27.48;4.82;;;6.00;99.90;;;;;;5080793;28;20046;-85
2022/01/06 12:38:53;;;;;;;10.77;2.75;;;6.10;99.90;;;;;;5088286;28;20048;-86
2022/01/06 12:41:31;;;;;;;38.90;3.92;;;6.10;99.90;;;;;;5081425;28;20397;-85
2022/01/06 12:43:57;;;;;;;29.73;3.70;;;6.10;99.90;;;;;;5089796;28;20075;-86
2022/01/06 12:46:33;;;;;;;16.00;3.08;;;6.00;99.90;;;;;;5071195;28;20039;-84
2022/01/06 12:48:59;;;;;;;9.77;2.28;;;6.00;99.90;;;;;;5074803;28;20485;-87
2022/01/06 12:51:30;;;;;;;14.40;3.15;;;6.10;99.90;;;;;;5094344;28;20028;-84
2022/01/06 12:54:09;;;;;;;31.13;4.82;;;6.00;99.90;;;;;;5074866;28;20048;-86
2022/01/06 12:56:37;;;;;;;15.32;3.83;;;6.00;99.90;;;;;;5076995;28;20378;-84